createdAt,value
2023-06-28T00:01:14.686Z,52.03
2023-06-28T00:03:41.602Z,52.14
2023-06-28T00:06:08.687Z,52.56
2023-06-28T00:08:35.277Z,52.61
2023-06-28T00:11:01.935Z,52.85
2023-06-28T00:13:28.698Z,53.38
2023-06-28T00:15:55.255Z,53.61
2023-06-28T00:18:23.237Z,53.83
2023-06-28T00:20:49.852Z,53.97
2023-06-28T00:23:16.562Z,54.50
2023-06-28T00:25:43.142Z,54.67
2023-06-28T00:28:09.762Z,55.00
2023-06-28T00:30:36.350Z,55.54
2023-06-28T00:33:03.193Z,55.49
2023-06-28T00:35:31.309Z,55.46
2023-06-28T00:37:57.936Z,55.19
2023-06-28T00:40:24.602Z,55.52
2023-06-28T00:42:51.468Z,55.71
2023-06-28T00:45:18.037Z,55.90
2023-06-28T00:47:44.956Z,56.20
2023-06-28T00:50:12.056Z,56.63
2023-06-28T00:52:40.069Z,56.62
2023-06-28T00:55:07.185Z,56.70
2023-06-28T00:57:34.016Z,56.77
2023-06-28T01:00:01.363Z,56.81
2023-06-28T01:02:28.230Z,57.26
2023-06-28T01:04:55.069Z,57.38
2023-06-28T01:07:22.084Z,57.46
2023-06-28T01:09:50.666Z,57.51
2023-06-28T01:12:17.538Z,57.50
2023-06-28T01:14:44.181Z,57.40
2023-06-28T01:17:10.960Z,57.93
2023-06-28T01:19:37.596Z,57.53
2023-06-28T01:22:05.860Z,58.15
2023-06-28T01:24:34.120Z,57.95
2023-06-28T01:27:01.230Z,58.18
2023-06-28T01:29:27.987Z,58.20
2023-06-28T01:31:56.214Z,58.27
2023-06-28T01:34:23.078Z,58.59
2023-06-28T01:36:51.697Z,58.70
2023-06-28T01:39:19.407Z,58.73
2023-06-28T01:41:50.305Z,58.71
2023-06-28T01:44:17.643Z,59.11
2023-06-28T01:46:45.039Z,58.71
2023-06-28T01:49:11.823Z,58.69
2023-06-28T01:51:38.782Z,58.70
2023-06-28T01:54:05.631Z,59.02
2023-06-28T01:56:32.766Z,59.02
2023-06-28T01:59:00.776Z,59.05
2023-06-28T02:01:27.949Z,59.57
2023-06-28T02:03:54.669Z,59.45
2023-06-28T02:06:21.433Z,59.44
2023-06-28T02:08:48.017Z,59.94
2023-06-28T02:11:14.764Z,59.91
2023-06-28T02:13:41.430Z,59.73
2023-06-28T02:16:09.517Z,59.42
2023-06-28T02:18:36.175Z,59.39
2023-06-28T02:21:02.989Z,59.91
2023-06-28T02:23:29.592Z,59.55
2023-06-28T02:25:58.832Z,59.72
2023-06-28T02:28:25.851Z,60.06
2023-06-28T02:30:52.481Z,59.77
2023-06-28T02:33:20.478Z,60.03
2023-06-28T02:35:47.097Z,59.39
2023-06-28T02:38:13.856Z,59.78
2023-06-28T02:40:40.768Z,59.68
2023-06-28T02:43:07.483Z,59.48
2023-06-28T02:45:34.253Z,59.43
2023-06-28T02:48:00.934Z,59.28
2023-06-28T02:50:28.952Z,59.38
2023-06-28T02:52:55.715Z,59.75
2023-06-28T02:55:22.299Z,59.55
2023-06-28T02:57:48.997Z,60.04
2023-06-28T03:00:16.202Z,60.25
2023-06-28T03:02:42.923Z,60.64
2023-06-28T03:05:09.593Z,60.56
2023-06-28T03:07:37.609Z,60.32
2023-06-28T03:10:05.107Z,60.07
2023-06-28T03:12:31.776Z,60.05
2023-06-28T03:14:58.593Z,60.24
2023-06-28T03:17:25.752Z,59.67
2023-06-28T03:19:52.493Z,59.38
2023-06-28T03:22:19.315Z,59.33
2023-06-28T03:24:47.637Z,58.90
2023-06-28T03:27:14.241Z,58.44
2023-06-28T03:29:40.985Z,58.25
2023-06-28T03:32:09.196Z,58.06
2023-06-28T03:34:35.840Z,57.67
2023-06-28T03:37:05.008Z,56.79
2023-06-28T03:39:32.240Z,56.45
2023-06-28T03:42:00.223Z,56.40
2023-06-28T03:44:26.954Z,55.91
2023-06-28T03:46:53.567Z,56.31
2023-06-28T03:49:20.669Z,56.12
2023-06-28T03:51:47.404Z,56.35
2023-06-28T03:54:13.990Z,57.26
2023-06-28T03:56:40.835Z,57.77
2023-06-28T03:59:08.826Z,57.88
2023-06-28T04:01:35.633Z,57.88
2023-06-28T04:04:02.356Z,57.66
2023-06-28T04:06:28.989Z,58.18
2023-06-28T04:08:55.578Z,58.04
2023-06-28T04:11:22.172Z,57.63
2023-06-28T04:13:54.915Z,57.09
2023-06-28T04:16:22.996Z,56.92
2023-06-28T04:18:49.586Z,56.29
2023-06-28T04:21:16.193Z,55.68
2023-06-28T04:23:42.895Z,54.69
2023-06-28T04:26:09.483Z,53.64
2023-06-28T04:28:36.055Z,52.89
2023-06-28T04:31:02.933Z,53.16
2023-06-28T04:33:30.969Z,52.67
2023-06-28T04:35:57.615Z,51.60
2023-06-28T04:38:24.402Z,51.00
2023-06-28T04:40:51.015Z,50.55
2023-06-28T04:43:17.610Z,50.68
2023-06-28T04:45:44.342Z,50.24
2023-06-28T04:48:10.960Z,50.02
2023-06-28T04:50:39.258Z,50.32
2023-06-28T04:53:06.705Z,50.05
2023-06-28T04:55:34.250Z,49.51
2023-06-28T04:58:01.454Z,49.74
2023-06-28T05:00:28.142Z,49.64
2023-06-28T05:02:54.993Z,49.24
2023-06-28T05:05:21.656Z,48.70
2023-06-28T05:07:49.762Z,48.81
2023-06-28T05:10:16.391Z,47.32
2023-06-28T05:12:43.205Z,47.61
2023-06-28T05:15:10.793Z,48.77
2023-06-28T05:17:37.471Z,49.66
2023-06-28T05:20:05.300Z,50.53
2023-06-28T05:22:31.937Z,51.03
2023-06-28T05:24:59.894Z,51.00
2023-06-28T05:27:26.769Z,51.13
2023-06-28T05:29:53.388Z,52.03
2023-06-28T05:32:20.029Z,52.53
2023-06-28T05:34:46.675Z,53.05
2023-06-28T05:37:13.277Z,52.95
2023-06-28T05:39:40.115Z,53.25
2023-06-28T05:42:08.437Z,53.86
2023-06-28T05:44:35.008Z,53.95
2023-06-28T05:47:01.753Z,53.77
2023-06-28T05:49:28.331Z,53.49
2023-06-28T05:51:55.217Z,54.03
2023-06-28T05:54:21.824Z,53.74
2023-06-28T05:56:48.475Z,54.09
2023-06-28T05:59:16.422Z,53.81
2023-06-28T06:01:43.074Z,53.25
2023-06-28T06:04:09.767Z,53.45
2023-06-28T06:06:36.713Z,53.95
2023-06-28T06:09:03.327Z,53.48
2023-06-28T06:11:29.932Z,53.87
2023-06-28T06:13:56.653Z,53.49
2023-06-28T06:16:25.286Z,53.31
2023-06-28T06:18:51.908Z,53.24
2023-06-28T06:21:19.111Z,53.24
2023-06-28T06:23:46.085Z,53.74
2023-06-28T06:26:12.960Z,54.38
2023-06-28T06:28:39.599Z,54.89
2023-06-28T06:31:06.241Z,55.11
2023-06-28T06:33:34.528Z,55.58
2023-06-28T06:36:01.148Z,55.75
2023-06-28T06:38:27.728Z,55.15
2023-06-28T06:40:54.440Z,54.20
2023-06-28T06:43:21.082Z,53.68
2023-06-28T06:45:48.301Z,53.59
2023-06-28T06:48:14.950Z,52.34
2023-06-28T06:50:43.464Z,52.33
2023-06-28T06:53:10.328Z,52.67
2023-06-28T06:55:36.959Z,53.05
2023-06-28T06:58:03.550Z,52.36
2023-06-28T07:00:30.153Z,52.87
2023-06-28T07:02:56.895Z,51.69
2023-06-28T07:05:23.567Z,52.19
2023-06-28T07:07:51.551Z,49.81
2023-06-28T07:10:18.318Z,50.14
2023-06-28T07:12:47.751Z,50.25
2023-06-28T07:15:14.383Z,50.30
2023-06-28T07:17:41.517Z,49.75
2023-06-28T07:20:09.228Z,49.65
2023-06-28T07:22:35.699Z,49.74
2023-06-28T07:25:04.116Z,49.65
2023-06-28T07:27:30.794Z,49.54
2023-06-28T07:29:57.429Z,46.90
2023-06-28T07:32:24.227Z,47.48
2023-06-28T07:34:51.038Z,47.98
2023-06-28T07:37:17.635Z,48.19
2023-06-28T07:39:44.242Z,48.33
2023-06-28T07:42:12.301Z,47.68
2023-06-28T07:44:38.920Z,47.87
2023-06-28T07:47:05.712Z,47.05
2023-06-28T07:49:32.469Z,46.35
2023-06-28T07:51:59.327Z,45.93
2023-06-28T07:54:34.067Z,45.60
2023-06-28T07:57:01.532Z,46.42
2023-06-28T07:59:29.452Z,46.99
2023-06-28T08:01:56.360Z,46.68
2023-06-28T08:04:23.095Z,46.69
2023-06-28T08:06:49.853Z,46.69
2023-06-28T08:09:16.776Z,46.98
2023-06-28T08:11:43.565Z,46.80
2023-06-28T08:14:10.278Z,47.09
2023-06-28T08:16:38.460Z,46.33
2023-06-28T08:19:05.084Z,46.57
2023-06-28T08:21:31.716Z,44.77
2023-06-28T08:23:58.465Z,45.55
2023-06-28T08:26:25.120Z,44.95
2023-06-28T08:29:00.513Z,44.26
2023-06-28T08:31:27.752Z,43.86
2023-06-28T08:33:56.760Z,43.25
2023-06-28T08:36:23.371Z,43.61
2023-06-28T08:38:49.973Z,42.78
2023-06-28T08:41:18.945Z,43.86
2023-06-28T08:43:48.939Z,43.52
2023-06-28T08:46:15.692Z,43.07
2023-06-28T08:48:42.881Z,43.46
2023-06-28T08:51:11.023Z,43.44
2023-06-28T08:53:38.701Z,44.21
2023-06-28T08:56:05.879Z,44.58
2023-06-28T08:58:34.154Z,44.37
2023-06-28T09:01:01.583Z,43.87
2023-06-28T09:03:29.592Z,44.37
2023-06-28T09:05:56.996Z,44.34
2023-06-28T09:08:26.175Z,45.25
2023-06-28T09:10:52.893Z,45.04
2023-06-28T09:13:19.639Z,45.44
2023-06-28T09:15:46.676Z,45.20
2023-06-28T09:18:16.086Z,45.14
2023-06-28T09:20:49.390Z,45.30
2023-06-28T09:23:23.333Z,45.57
2023-06-28T09:25:51.656Z,45.93
2023-06-28T09:28:18.835Z,45.52
2023-06-28T09:30:51.410Z,45.26
2023-06-28T09:33:18.805Z,45.22
2023-06-28T09:35:45.946Z,45.53
2023-06-28T09:38:13.328Z,45.03
2023-06-28T09:40:39.913Z,44.43
2023-06-28T09:43:15.077Z,44.40
2023-06-28T09:45:41.998Z,43.53
2023-06-28T09:48:08.932Z,43.43
2023-06-28T09:50:37.067Z,42.85
2023-06-28T09:53:03.956Z,42.84
2023-06-28T09:55:30.699Z,41.53
2023-06-28T09:57:58.734Z,41.46
2023-06-28T10:00:28.917Z,41.59
2023-06-28T10:02:59.633Z,41.33
2023-06-28T10:05:27.334Z,41.53
2023-06-28T10:07:55.092Z,42.59
2023-06-28T10:10:22.110Z,43.47
2023-06-28T10:12:51.250Z,42.77
2023-06-28T10:15:22.225Z,42.72
2023-06-28T10:17:51.028Z,42.34
2023-06-28T10:20:17.969Z,43.28
2023-06-28T10:22:44.986Z,42.81
2023-06-28T10:25:12.911Z,42.92
2023-06-28T10:27:40.231Z,42.41
2023-06-28T10:30:08.202Z,42.30
2023-06-28T10:32:36.173Z,42.67
2023-06-28T10:35:07.405Z,42.33
2023-06-28T10:37:34.120Z,42.32
2023-06-28T10:40:00.769Z,42.51
2023-06-28T10:42:38.594Z,42.51
2023-06-28T10:45:06.529Z,42.84
2023-06-28T10:47:34.597Z,43.54
2023-06-28T10:50:11.511Z,42.89
2023-06-28T10:52:46.059Z,42.50
2023-06-28T10:55:12.629Z,42.34
2023-06-28T10:57:40.121Z,42.23
2023-06-28T11:00:09.107Z,42.20
2023-06-28T11:02:52.872Z,41.74
2023-06-28T11:05:39.166Z,41.27
2023-06-28T11:08:10.454Z,40.73
2023-06-28T11:10:38.885Z,40.49
2023-06-28T11:13:08.412Z,40.54
2023-06-28T11:15:36.024Z,39.61
2023-06-28T11:18:16.476Z,39.43
2023-06-28T11:20:50.794Z,37.94
2023-06-28T11:23:30.652Z,37.83
2023-06-28T11:25:58.280Z,37.15
2023-06-28T11:28:29.732Z,37.28
2023-06-28T11:30:56.983Z,36.84
2023-06-28T11:33:23.910Z,35.89
2023-06-28T11:35:52.317Z,35.63
2023-06-28T11:38:19.617Z,34.13
2023-06-28T11:40:47.630Z,34.45
2023-06-28T11:43:14.367Z,33.78
2023-06-28T11:45:41.237Z,34.03
2023-06-28T11:48:10.298Z,33.45
2023-06-28T11:50:37.043Z,34.02
2023-06-28T11:53:05.471Z,33.19
2023-06-28T11:55:32.103Z,33.61
2023-06-28T11:57:58.902Z,33.42
2023-06-28T12:00:38.052Z,33.19
2023-06-28T12:03:04.779Z,33.75
2023-06-28T12:05:31.644Z,32.50
2023-06-28T12:07:58.531Z,31.69
2023-06-28T12:10:33.501Z,33.24
2023-06-28T12:13:00.110Z,32.86
2023-06-28T12:15:26.955Z,32.36
2023-06-28T12:17:53.589Z,33.16
2023-06-28T12:20:23.015Z,33.48
2023-06-28T12:22:49.629Z,33.32
2023-06-28T12:25:27.084Z,33.87
2023-06-28T12:28:01.559Z,34.55
2023-06-28T12:30:28.433Z,34.24
2023-06-28T12:32:57.740Z,33.96
2023-06-28T12:35:25.375Z,34.48
2023-06-28T12:37:56.111Z,35.21
2023-06-28T12:40:23.417Z,35.67
2023-06-28T12:43:13.209Z,34.97
2023-06-28T12:45:44.607Z,35.25
2023-06-28T12:48:11.719Z,34.81
2023-06-28T12:50:38.346Z,35.28
2023-06-28T12:53:05.056Z,34.92
2023-06-28T12:55:31.652Z,33.96
2023-06-28T12:57:58.248Z,33.53
2023-06-28T13:00:26.355Z,33.64
2023-06-28T13:02:53.008Z,33.79
2023-06-28T13:05:19.789Z,33.16
2023-06-28T13:07:46.431Z,32.64
2023-06-28T13:10:13.216Z,32.47
2023-06-28T13:12:39.832Z,32.46
2023-06-28T13:15:07.736Z,32.20
2023-06-28T13:17:35.873Z,33.25
2023-06-28T13:20:03.422Z,33.12
2023-06-28T13:22:30.673Z,32.79
2023-06-28T13:24:57.296Z,32.83
2023-06-28T13:27:23.903Z,32.38
2023-06-28T13:29:50.537Z,32.97
2023-06-28T13:32:17.119Z,32.84
2023-06-28T13:34:45.114Z,32.36
2023-06-28T13:37:26.808Z,32.11
2023-06-28T13:39:54.503Z,31.54
2023-06-28T13:42:21.102Z,31.46
2023-06-28T13:44:47.711Z,32.35
2023-06-28T13:47:14.304Z,32.92
2023-06-28T13:49:40.930Z,33.12
2023-06-28T13:52:09.100Z,32.56
2023-06-28T13:54:35.699Z,32.38
2023-06-28T13:57:02.290Z,32.73
2023-06-28T13:59:28.885Z,33.25
2023-06-28T14:01:55.530Z,32.92
2023-06-28T14:04:22.210Z,33.62
2023-06-28T14:06:48.879Z,34.52
2023-06-28T14:09:16.908Z,33.74
2023-06-28T14:11:43.882Z,33.47
2023-06-28T14:14:10.620Z,33.11
2023-06-28T14:16:37.219Z,33.37
2023-06-28T14:19:03.841Z,33.21
2023-06-28T14:21:30.719Z,33.67
2023-06-28T14:23:57.309Z,34.52
2023-06-28T14:26:25.423Z,34.15
2023-06-28T14:28:52.517Z,34.00
2023-06-28T14:31:19.338Z,34.05
2023-06-28T14:33:46.995Z,33.30
2023-06-28T14:36:13.686Z,33.36
2023-06-28T14:38:40.384Z,33.32
2023-06-28T14:41:07.008Z,33.55
2023-06-28T14:43:34.992Z,33.73
2023-06-28T14:46:01.617Z,33.82
2023-06-28T14:48:28.229Z,33.79
2023-06-28T14:50:55.206Z,33.66
2023-06-28T14:53:21.781Z,33.96
2023-06-28T14:55:48.393Z,34.87
2023-06-28T14:58:15.165Z,34.78
2023-06-28T15:00:43.143Z,34.42
2023-06-28T15:03:09.775Z,35.14
2023-06-28T15:05:36.563Z,35.78
2023-06-28T15:08:03.225Z,35.49
2023-06-28T15:10:29.854Z,36.59
2023-06-28T15:12:56.611Z,36.99
2023-06-28T15:15:23.250Z,36.80
2023-06-28T15:17:51.369Z,37.39
2023-06-28T15:20:30.183Z,37.97
2023-06-28T15:23:05.006Z,37.67
2023-06-28T15:25:31.757Z,38.40
2023-06-28T15:27:58.542Z,38.79
2023-06-28T15:30:25.223Z,38.50
2023-06-28T15:32:53.213Z,38.71
2023-06-28T15:35:20.014Z,38.87
2023-06-28T15:37:46.650Z,39.31
2023-06-28T15:40:14.468Z,39.46
2023-06-28T15:42:41.229Z,39.01
2023-06-28T15:45:08.624Z,38.99
2023-06-28T15:47:35.269Z,39.40
2023-06-28T15:50:03.774Z,39.02
2023-06-28T15:52:30.497Z,38.66
2023-06-28T15:54:58.750Z,39.44
2023-06-28T15:57:25.473Z,38.90
2023-06-28T15:59:52.117Z,38.64
2023-06-28T16:02:18.917Z,38.03
2023-06-28T16:04:45.740Z,38.35
2023-06-28T16:07:13.714Z,38.58
2023-06-28T16:09:40.356Z,38.52
2023-06-28T16:12:08.329Z,38.13
2023-06-28T16:14:35.530Z,37.45
2023-06-28T16:17:04.454Z,37.82
2023-06-28T16:19:31.183Z,37.54
2023-06-28T16:21:57.785Z,37.16
2023-06-28T16:24:25.923Z,36.81
2023-06-28T16:26:52.627Z,37.19
2023-06-28T16:29:19.256Z,36.64
2023-06-28T16:31:45.946Z,37.22
2023-06-28T16:34:12.550Z,37.18
2023-06-28T16:36:39.168Z,37.60
2023-06-28T16:39:05.904Z,37.29
2023-06-28T16:41:33.900Z,37.00
2023-06-28T16:44:00.521Z,36.89
2023-06-28T16:46:27.170Z,37.03
2023-06-28T16:48:53.835Z,37.17
2023-06-28T16:51:20.467Z,37.27
2023-06-28T16:53:47.354Z,37.74
2023-06-28T16:56:14.168Z,37.43
2023-06-28T16:58:42.152Z,37.27
2023-06-28T17:01:08.735Z,37.77
2023-06-28T17:03:35.615Z,37.92
2023-06-28T17:06:02.325Z,38.13
2023-06-28T17:08:28.951Z,38.93
2023-06-28T17:10:55.767Z,38.83
2023-06-28T17:13:22.343Z,38.42
2023-06-28T17:15:50.288Z,38.79
2023-06-28T17:18:17.018Z,38.67
2023-06-28T17:20:43.959Z,38.33
2023-06-28T17:23:10.691Z,39.22
2023-06-28T17:25:37.299Z,39.18
2023-06-28T17:28:04.439Z,38.66
2023-06-28T17:30:31.048Z,38.99
2023-06-28T17:32:59.089Z,38.80
2023-06-28T17:35:25.787Z,39.16
2023-06-28T17:37:52.357Z,39.30
2023-06-28T17:40:19.159Z,39.54
2023-06-28T17:42:45.884Z,39.46
2023-06-28T17:45:12.664Z,39.75
2023-06-28T17:47:39.801Z,40.29
2023-06-28T17:50:09.614Z,40.98
2023-06-28T17:52:36.210Z,41.50
2023-06-28T17:55:02.841Z,41.04
2023-06-28T17:57:29.642Z,40.95
2023-06-28T17:59:56.280Z,41.56
2023-06-28T18:02:22.895Z,41.82
2023-06-28T18:04:49.724Z,41.86
2023-06-28T18:07:17.746Z,41.96
2023-06-28T18:09:44.399Z,42.23
2023-06-28T18:12:11.338Z,42.65
2023-06-28T18:14:38.294Z,42.45
2023-06-28T18:17:05.058Z,42.69
2023-06-28T18:19:31.934Z,42.69
2023-06-28T18:21:58.696Z,42.85
2023-06-28T18:24:26.697Z,43.02
2023-06-28T18:26:53.414Z,43.54
2023-06-28T18:29:20.021Z,43.55
2023-06-28T18:31:46.996Z,44.24
2023-06-28T18:34:13.746Z,43.99
2023-06-28T18:36:40.334Z,44.27
2023-06-28T18:39:07.134Z,44.80
2023-06-28T18:41:38.029Z,44.73
2023-06-28T18:44:04.969Z,44.80
2023-06-28T18:46:31.743Z,45.32
2023-06-28T18:48:58.370Z,45.47
2023-06-28T18:51:25.005Z,45.23
2023-06-28T18:53:51.729Z,45.36
2023-06-28T18:56:18.231Z,45.60
2023-06-28T18:58:46.195Z,45.86
2023-06-28T19:01:12.859Z,46.36
2023-06-28T19:03:39.585Z,46.11
2023-06-28T19:06:06.232Z,46.27
2023-06-28T19:08:32.974Z,46.38
2023-06-28T19:11:00.722Z,46.51
2023-06-28T19:13:27.334Z,46.57
2023-06-28T19:15:55.282Z,46.91
2023-06-28T19:18:22.876Z,47.12
2023-06-28T19:20:49.496Z,46.77
2023-06-28T19:23:16.290Z,47.21
2023-06-28T19:25:45.730Z,47.05
2023-06-28T19:28:12.340Z,47.38
2023-06-28T19:30:39.096Z,47.55
2023-06-28T19:33:13.216Z,47.85
2023-06-28T19:35:39.832Z,48.35
2023-06-28T19:38:06.448Z,48.17
2023-06-28T19:40:33.121Z,48.24
2023-06-28T19:42:59.850Z,48.61
2023-06-28T19:45:26.630Z,48.32
2023-06-28T19:47:53.285Z,48.15
2023-06-28T19:50:21.445Z,48.50
2023-06-28T19:52:48.349Z,48.92
2023-06-28T19:55:15.578Z,48.97
2023-06-28T19:57:42.158Z,49.45
2023-06-28T20:00:09.876Z,49.54
2023-06-28T20:02:36.598Z,49.29
2023-06-28T20:05:03.622Z,49.85
2023-06-28T20:07:31.899Z,50.14
2023-06-28T20:10:03.691Z,49.94
2023-06-28T20:12:34.155Z,49.92
2023-06-28T20:15:00.787Z,49.97
2023-06-28T20:17:27.613Z,50.23
2023-06-28T20:19:54.227Z,50.49
2023-06-28T20:22:20.990Z,50.19
2023-06-28T20:24:48.936Z,50.41
2023-06-28T20:27:15.570Z,50.83
2023-06-28T20:29:42.188Z,50.73
2023-06-28T20:32:09.265Z,50.67
2023-06-28T20:34:36.065Z,50.11
2023-06-28T20:37:02.681Z,49.92
2023-06-28T20:39:29.292Z,50.18
2023-06-28T20:41:57.378Z,49.98
2023-06-28T20:44:24.041Z,50.15
2023-06-28T20:46:50.801Z,50.43
2023-06-28T20:49:17.601Z,49.96
2023-06-28T20:51:44.225Z,49.94
2023-06-28T20:54:10.848Z,50.42
2023-06-28T20:56:40.735Z,50.74
2023-06-28T20:59:08.681Z,50.73
2023-06-28T21:01:35.497Z,50.58
2023-06-28T21:04:02.126Z,50.45
2023-06-28T21:06:28.747Z,50.34
2023-06-28T21:08:55.335Z,50.17
2023-06-28T21:11:22.172Z,49.79
2023-06-28T21:13:48.769Z,50.15
2023-06-28T21:16:16.735Z,50.18
2023-06-28T21:18:43.389Z,49.95
2023-06-28T21:21:10.039Z,50.44
2023-06-28T21:23:36.666Z,50.24
2023-06-28T21:26:03.319Z,50.17
2023-06-28T21:28:29.938Z,50.56
2023-06-28T21:30:56.525Z,50.39
2023-06-28T21:33:24.539Z,50.41
2023-06-28T21:35:51.149Z,50.87
2023-06-28T21:38:17.769Z,51.02
2023-06-28T21:40:44.369Z,51.00
2023-06-28T21:43:10.987Z,50.45
2023-06-28T21:45:37.578Z,50.49
2023-06-28T21:48:04.606Z,50.89
2023-06-28T21:50:32.735Z,50.64
2023-06-28T21:52:59.566Z,51.27
2023-06-28T21:55:26.377Z,50.80
2023-06-28T21:57:52.956Z,50.87
2023-06-28T22:00:21.557Z,51.04
2023-06-28T22:02:48.459Z,51.20
2023-06-28T22:05:15.178Z,51.12
2023-06-28T22:07:43.668Z,51.86
2023-06-28T22:10:10.991Z,51.64
2023-06-28T22:12:38.241Z,51.68
2023-06-28T22:15:05.864Z,52.21
2023-06-28T22:17:32.829Z,51.64
2023-06-28T22:19:59.549Z,52.22
2023-06-28T22:22:26.429Z,52.00
2023-06-28T22:24:54.559Z,52.10
2023-06-28T22:27:21.155Z,52.21
2023-06-28T22:29:47.746Z,52.17
2023-06-28T22:32:14.651Z,51.52
2023-06-28T22:34:41.252Z,52.02
2023-06-28T22:37:07.849Z,52.81
2023-06-28T22:39:34.946Z,52.24
2023-06-28T22:42:03.243Z,52.19
2023-06-28T22:44:29.968Z,52.39
2023-06-28T22:46:56.554Z,52.31
2023-06-28T22:49:23.375Z,52.04
2023-06-28T22:51:49.968Z,52.26
2023-06-28T22:54:25.094Z,51.94
2023-06-28T22:56:51.704Z,52.42
2023-06-28T22:59:20.208Z,51.64
2023-06-28T23:01:47.493Z,52.15
2023-06-28T23:04:14.142Z,52.48
2023-06-28T23:06:40.760Z,52.54
2023-06-28T23:09:07.565Z,52.27
2023-06-28T23:11:34.193Z,52.30
2023-06-28T23:14:00.821Z,51.74
2023-06-28T23:16:28.932Z,52.75
2023-06-28T23:18:55.766Z,52.74
2023-06-28T23:21:22.932Z,53.37
2023-06-28T23:23:49.569Z,52.79
2023-06-28T23:26:16.380Z,52.83
2023-06-28T23:28:42.963Z,52.72
2023-06-28T23:31:09.659Z,52.98
2023-06-28T23:33:39.826Z,53.57
2023-06-28T23:36:06.710Z,53.08
2023-06-28T23:38:33.331Z,53.18
2023-06-28T23:41:00.072Z,53.63
2023-06-28T23:43:26.834Z,53.21
2023-06-28T23:45:53.469Z,53.07
2023-06-28T23:48:20.067Z,53.19
2023-06-28T23:50:48.185Z,52.79
2023-06-28T23:53:14.980Z,53.31
2023-06-28T23:55:42.043Z,52.92
2023-06-28T23:58:08.797Z,53.19
